sensor_id;sensor_type;location;lat;lon;timestamp;temperature;humidity
52765;DHT22;38650;44.536;18.664;2022-11-24T09:21:32;8.00;99.90
52765;DHT22;38650;44.536;18.664;2022-11-24T09:24:01;8.10;99.90
52765;DHT22;38650;44.536;18.664;2022-11-24T09:26:29;8.30;99.90
52765;DHT22;38650;44.536;18.664;2022-11-24T09:28:57;9.00;99.90
52765;DHT22;38650;44.536;18.664;2022-11-24T09:31:26;9.80;99.90
52765;DHT22;38650;44.536;18.664;2022-11-24T09:33:52;10.50;99.90
52765;DHT22;38650;44.536;18.664;2022-11-24T09:36:19;10.80;99.90
52765;DHT22;38650;44.536;18.664;2022-11-24T09:38:45;11.20;99.90
52765;DHT22;38650;44.536;18.664;2022-11-24T09:48:56;12.70;93.50
52765;DHT22;38650;44.536;18.664;2022-11-24T09:51:26;13.10;90.00
52765;DHT22;38650;44.536;18.664;2022-11-24T09:54:04;13.40;84.30
52765;DHT22;38650;44.536;18.664;2022-11-24T09:56:33;13.60;82.60
52765;DHT22;38650;44.536;18.664;2022-11-24T09:59:04;13.80;80.00
52765;DHT22;38650;44.536;18.664;2022-11-24T10:01:39;14.00;78.50
52765;DHT22;38650;44.536;18.664;2022-11-24T10:04:38;14.00;74.10
52765;DHT22;38650;44.536;18.664;2022-11-24T10:09:57;14.60;75.00
52765;DHT22;38650;44.536;18.664;2022-11-24T10:26:59;15.60;64.80
52765;DHT22;38650;44.536;18.664;2022-11-24T10:29:39;16.10;63.90
52765;DHT22;38650;44.536;18.664;2022-11-24T10:32:34;16.20;62.70
52765;DHT22;38650;44.536;18.664;2022-11-24T10:35:25;15.70;63.00
52765;DHT22;38650;44.536;18.664;2022-11-24T10:38:01;15.70;63.80
52765;DHT22;38650;44.536;18.664;2022-11-24T10:40:43;15.80;62.60
52765;DHT22;38650;44.536;18.664;2022-11-24T10:43:11;15.90;59.60
52765;DHT22;38650;44.536;18.664;2022-11-24T10:48:51;15.70;61.90
52765;DHT22;38650;44.536;18.664;2022-11-24T10:51:45;15.90;59.80
52765;DHT22;38650;44.536;18.664;2022-11-24T10:54:14;15.90;59.70
52765;DHT22;38650;44.536;18.664;2022-11-24T10:56:42;16.00;59.80
52765;DHT22;38650;44.536;18.664;2022-11-24T11:01:46;16.40;58.50
52765;DHT22;38650;44.536;18.664;2022-11-24T11:04:18;16.00;57.70
52765;DHT22;38650;44.536;18.664;2022-11-24T11:06:44;16.20;57.50
52765;DHT22;38650;44.536;18.664;2022-11-24T11:09:17;16.40;56.70
52765;DHT22;38650;44.536;18.664;2022-11-24T11:11:44;16.50;55.30
52765;DHT22;38650;44.536;18.664;2022-11-24T11:14:13;16.60;54.20
52765;DHT22;38650;44.536;18.664;2022-11-24T11:16:54;16.50;54.10
52765;DHT22;38650;44.536;18.664;2022-11-24T11:19:37;16.50;54.20
52765;DHT22;38650;44.536;18.664;2022-11-24T11:22:26;16.50;54.30
52765;DHT22;38650;44.536;18.664;2022-11-24T11:25:06;16.40;51.90
52765;DHT22;38650;44.536;18.664;2022-11-24T11:27:39;16.10;53.30
52765;DHT22;38650;44.536;18.664;2022-11-24T11:30:25;15.90;53.00
52765;DHT22;38650;44.536;18.664;2022-11-24T11:32:57;15.80;53.50
52765;DHT22;38650;44.536;18.664;2022-11-24T11:35:27;15.90;53.70
52765;DHT22;38650;44.536;18.664;2022-11-24T11:37:59;15.80;53.20
52765;DHT22;38650;44.536;18.664;2022-11-24T11:40:29;15.80;53.40
52765;DHT22;38650;44.536;18.664;2022-11-24T11:43:01;15.50;54.50
52765;DHT22;38650;44.536;18.664;2022-11-24T11:45:34;15.30;54.60
52765;DHT22;38650;44.536;18.664;2022-11-24T12:01:23;15.60;55.30
52765;DHT22;38650;44.536;18.664;2022-11-24T12:04:40;15.70;54.70
52765;DHT22;38650;44.536;18.664;2022-11-24T12:18:24;14.90;55.60
52765;DHT22;38650;44.536;18.664;2022-11-24T12:24:42;15.00;56.00
52765;DHT22;38650;44.536;18.664;2022-11-24T12:26:57;15.00;57.60
52765;DHT22;38650;44.536;18.664;2022-11-24T12:35:19;15.00;55.60
52765;DHT22;38650;44.536;18.664;2022-11-24T12:43:38;14.60;54.80
52765;DHT22;38650;44.536;18.664;2022-11-24T12:46:28;14.30;56.80
52765;DHT22;38650;44.536;18.664;2022-11-24T12:51:57;14.30;58.10
52765;DHT22;38650;44.536;18.664;2022-11-24T12:54:24;14.20;57.90
52765;DHT22;38650;44.536;18.664;2022-11-24T12:59:42;14.00;58.40
52765;DHT22;38650;44.536;18.664;2022-11-24T13:07:45;13.70;58.00
52765;DHT22;38650;44.536;18.664;2022-11-24T13:15:28;13.70;57.90
52765;DHT22;38650;44.536;18.664;2022-11-24T13:17:54;13.50;58.90
52765;DHT22;38650;44.536;18.664;2022-11-24T13:22:51;13.40;59.40
52765;DHT22;38650;44.536;18.664;2022-11-24T13:25:25;13.40;59.70
52765;DHT22;38650;44.536;18.664;2022-11-24T13:27:54;13.30;59.10
52765;DHT22;38650;44.536;18.664;2022-11-24T13:33:01;13.20;60.00
52765;DHT22;38650;44.536;18.664;2022-11-24T13:35:27;13.20;59.90
52765;DHT22;38650;44.536;18.664;2022-11-24T13:37:53;13.30;59.50
52765;DHT22;38650;44.536;18.664;2022-11-24T13:53:34;13.60;61.40
52765;DHT22;38650;44.536;18.664;2022-11-24T14:06:32;13.20;61.20
52765;DHT22;38650;44.536;18.664;2022-11-24T14:09:00;13.30;62.70
52765;DHT22;38650;44.536;18.664;2022-11-24T14:11:28;13.30;61.70
52765;DHT22;38650;44.536;18.664;2022-11-24T14:13:54;13.40;62.70
52765;DHT22;38650;44.536;18.664;2022-11-24T14:16:23;13.40;62.70
52765;DHT22;38650;44.536;18.664;2022-11-24T14:18:50;13.40;61.90
52765;DHT22;38650;44.536;18.664;2022-11-24T14:23:46;13.40;63.50
52765;DHT22;38650;44.536;18.664;2022-11-24T14:26:32;13.40;63.60
52765;DHT22;38650;44.536;18.664;2022-11-24T14:29:24;13.40;64.00
52765;DHT22;38650;44.536;18.664;2022-11-24T14:31:56;13.40;62.30
52765;DHT22;38650;44.536;18.664;2022-11-24T14:34:24;13.30;63.50
52765;DHT22;38650;44.536;18.664;2022-11-24T14:36:51;13.20;63.30
52765;DHT22;38650;44.536;18.664;2022-11-24T14:39:20;13.20;64.00
52765;DHT22;38650;44.536;18.664;2022-11-24T14:42:04;13.20;63.70
52765;DHT22;38650;44.536;18.664;2022-11-24T14:47:30;13.10;65.30
52765;DHT22;38650;44.536;18.664;2022-11-24T14:49:58;13.10;64.50
52765;DHT22;38650;44.536;18.664;2022-11-24T14:52:30;13.20;63.50
52765;DHT22;38650;44.536;18.664;2022-11-24T14:54:57;13.20;63.30
52765;DHT22;38650;44.536;18.664;2022-11-24T14:57:35;13.20;63.60
52765;DHT22;38650;44.536;18.664;2022-11-24T15:00:27;13.10;64.70
52765;DHT22;38650;44.536;18.664;2022-11-24T15:03:14;13.10;64.40
52765;DHT22;38650;44.536;18.664;2022-11-24T15:05:54;13.10;63.90
52765;DHT22;38650;44.536;18.664;2022-11-24T15:08:22;13.10;64.40
52765;DHT22;38650;44.536;18.664;2022-11-24T15:10:55;13.00;68.00
52765;DHT22;38650;44.536;18.664;2022-11-24T15:13:23;12.70;70.80
52765;DHT22;38650;44.536;18.664;2022-11-24T15:15:58;12.50;73.30
52765;DHT22;38650;44.536;18.664;2022-11-24T15:18:40;12.30;77.90
52765;DHT22;38650;44.536;18.664;2022-11-24T15:21:07;12.10;87.40
52765;DHT22;38650;44.536;18.664;2022-11-24T15:23:34;12.00;94.50
52765;DHT22;38650;44.536;18.664;2022-11-24T15:28:27;11.80;94.60
52765;DHT22;38650;44.536;18.664;2022-11-24T15:30:54;11.70;99.90
52765;DHT22;38650;44.536;18.664;2022-11-24T15:33:21;11.40;99.90
52765;DHT22;38650;44.536;18.664;2022-11-24T15:35:48;11.20;99.90
52765;DHT22;38650;44.536;18.664;2022-11-24T15:38:14;11.00;99.90
52765;DHT22;38650;44.536;18.664;2022-11-24T15:40:42;10.90;99.90
52765;DHT22;38650;44.536;18.664;2022-11-24T15:45:49;10.70;99.90
52765;DHT22;38650;44.536;18.664;2022-11-24T15:48:15;10.60;99.90
52765;DHT22;38650;44.536;18.664;2022-11-24T15:50:41;10.40;99.90
52765;DHT22;38650;44.536;18.664;2022-11-24T15:53:14;10.20;99.90
52765;DHT22;38650;44.536;18.664;2022-11-24T15:55:41;10.30;99.90
52765;DHT22;38650;44.536;18.664;2022-11-24T15:58:11;10.40;99.90
52765;DHT22;38650;44.536;18.664;2022-11-24T16:00:36;10.40;99.90
52765;DHT22;38650;44.536;18.664;2022-11-24T16:03:03;10.30;99.90
52765;DHT22;38650;44.536;18.664;2022-11-24T16:05:29;10.30;99.90
52765;DHT22;38650;44.536;18.664;2022-11-24T16:07:56;10.30;99.90
52765;DHT22;38650;44.536;18.664;2022-11-24T16:10:27;10.40;99.90
52765;DHT22;38650;44.536;18.664;2022-11-24T16:12:54;10.40;99.90
52765;DHT22;38650;44.536;18.664;2022-11-24T16:15:19;10.30;99.90
52765;DHT22;38650;44.536;18.664;2022-11-24T16:17:45;10.30;99.90
52765;DHT22;38650;44.536;18.664;2022-11-24T16:20:11;10.20;99.90
52765;DHT22;38650;44.536;18.664;2022-11-24T16:22:37;10.10;99.90
52765;DHT22;38650;44.536;18.664;2022-11-24T16:25:03;9.80;99.90
52765;DHT22;38650;44.536;18.664;2022-11-24T16:27:29;9.60;99.90
52765;DHT22;38650;44.536;18.664;2022-11-24T16:29:55;9.30;99.90
52765;DHT22;38650;44.536;18.664;2022-11-24T16:32:21;9.10;99.90
52765;DHT22;38650;44.536;18.664;2022-11-24T16:34:47;8.90;99.90
52765;DHT22;38650;44.536;18.664;2022-11-24T16:37:12;8.80;99.90
52765;DHT22;38650;44.536;18.664;2022-11-24T16:39:38;8.70;99.90
52765;DHT22;38650;44.536;18.664;2022-11-24T16:42:04;8.80;99.90
52765;DHT22;38650;44.536;18.664;2022-11-24T16:44:29;8.90;99.90
52765;DHT22;38650;44.536;18.664;2022-11-24T16:46:55;9.10;99.90
52765;DHT22;38650;44.536;18.664;2022-11-24T16:49:21;9.20;99.90
52765;DHT22;38650;44.536;18.664;2022-11-24T16:51:47;9.10;99.90
52765;DHT22;38650;44.536;18.664;2022-11-24T16:54:12;9.10;99.90
52765;DHT22;38650;44.536;18.664;2022-11-24T16:56:38;9.00;99.90
52765;DHT22;38650;44.536;18.664;2022-11-24T16:59:04;8.90;99.90
52765;DHT22;38650;44.536;18.664;2022-11-24T17:01:29;8.70;99.90
52765;DHT22;38650;44.536;18.664;2022-11-24T17:03:57;8.80;99.90
52765;DHT22;38650;44.536;18.664;2022-11-24T17:06:23;8.90;99.90
52765;DHT22;38650;44.536;18.664;2022-11-24T17:08:49;9.10;99.90
52765;DHT22;38650;44.536;18.664;2022-11-24T17:11:16;9.20;99.90
52765;DHT22;38650;44.536;18.664;2022-11-24T17:13:43;9.20;99.90
52765;DHT22;38650;44.536;18.664;2022-11-24T17:16:15;9.10;99.90
52765;DHT22;38650;44.536;18.664;2022-11-24T17:18:42;9.10;99.90
52765;DHT22;38650;44.536;18.664;2022-11-24T17:21:26;9.10;99.90
52765;DHT22;38650;44.536;18.664;2022-11-24T17:23:56;9.00;99.90
52765;DHT22;38650;44.536;18.664;2022-11-24T17:26:23;9.00;99.90
52765;DHT22;38650;44.536;18.664;2022-11-24T17:28:49;8.90;99.90
52765;DHT22;38650;44.536;18.664;2022-11-24T17:31:27;8.90;99.90
52765;DHT22;38650;44.536;18.664;2022-11-24T17:33:55;8.90;99.90
52765;DHT22;38650;44.536;18.664;2022-11-24T17:36:21;8.90;99.90
52765;DHT22;38650;44.536;18.664;2022-11-24T17:38:47;8.90;99.90
52765;DHT22;38650;44.536;18.664;2022-11-24T17:41:14;9.00;99.90
52765;DHT22;38650;44.536;18.664;2022-11-24T17:43:40;9.00;99.90
52765;DHT22;38650;44.536;18.664;2022-11-24T17:46:07;9.00;99.90
52765;DHT22;38650;44.536;18.664;2022-11-24T17:48:34;9.00;99.90
52765;DHT22;38650;44.536;18.664;2022-11-24T17:51:02;9.00;99.90
52765;DHT22;38650;44.536;18.664;2022-11-24T17:53:28;9.00;99.90
52765;DHT22;38650;44.536;18.664;2022-11-24T17:55:57;9.00;99.90
52765;DHT22;38650;44.536;18.664;2022-11-24T17:58:28;9.10;99.90
52765;DHT22;38650;44.536;18.664;2022-11-24T18:00:55;9.20;99.90
52765;DHT22;38650;44.536;18.664;2022-11-24T18:03:21;9.30;99.90
52765;DHT22;38650;44.536;18.664;2022-11-24T18:05:47;9.30;99.90
52765;DHT22;38650;44.536;18.664;2022-11-24T18:08:13;9.20;99.90
52765;DHT22;38650;44.536;18.664;2022-11-24T18:10:39;9.10;99.90
52765;DHT22;38650;44.536;18.664;2022-11-24T18:13:05;9.10;99.90
52765;DHT22;38650;44.536;18.664;2022-11-24T18:15:34;9.10;99.90
52765;DHT22;38650;44.536;18.664;2022-11-24T18:18:00;9.20;99.90
52765;DHT22;38650;44.536;18.664;2022-11-24T18:20:26;9.20;99.90
52765;DHT22;38650;44.536;18.664;2022-11-24T18:22:54;9.30;99.90
52765;DHT22;38650;44.536;18.664;2022-11-24T18:25:20;9.40;99.90
52765;DHT22;38650;44.536;18.664;2022-11-24T18:27:46;9.40;99.90
52765;DHT22;38650;44.536;18.664;2022-11-24T18:30:12;9.40;99.90
52765;DHT22;38650;44.536;18.664;2022-11-24T18:32:38;9.40;99.90
52765;DHT22;38650;44.536;18.664;2022-11-24T18:35:04;9.30;99.90
52765;DHT22;38650;44.536;18.664;2022-11-24T18:37:30;9.30;99.90
52765;DHT22;38650;44.536;18.664;2022-11-24T18:40:00;9.30;99.90
52765;DHT22;38650;44.536;18.664;2022-11-24T18:42:27;9.30;99.90
52765;DHT22;38650;44.536;18.664;2022-11-24T18:44:53;9.30;99.90
52765;DHT22;38650;44.536;18.664;2022-11-24T18:47:20;9.40;99.90
52765;DHT22;38650;44.536;18.664;2022-11-24T18:49:46;9.50;99.90
52765;DHT22;38650;44.536;18.664;2022-11-24T18:52:12;9.60;99.90
52765;DHT22;38650;44.536;18.664;2022-11-24T18:54:37;9.60;99.90
52765;DHT22;38650;44.536;18.664;2022-11-24T18:57:03;9.60;99.90
52765;DHT22;38650;44.536;18.664;2022-11-24T18:59:29;9.60;99.90
52765;DHT22;38650;44.536;18.664;2022-11-24T19:01:54;9.60;99.90
52765;DHT22;38650;44.536;18.664;2022-11-24T19:04:22;9.60;99.90
52765;DHT22;38650;44.536;18.664;2022-11-24T19:06:48;9.70;99.90
52765;DHT22;38650;44.536;18.664;2022-11-24T19:09:16;9.70;99.90
52765;DHT22;38650;44.536;18.664;2022-11-24T19:11:44;9.70;99.90
52765;DHT22;38650;44.536;18.664;2022-11-24T19:14:13;9.70;99.90
52765;DHT22;38650;44.536;18.664;2022-11-24T19:16:39;9.70;99.90
52765;DHT22;38650;44.536;18.664;2022-11-24T19:19:05;9.70;99.90
52765;DHT22;38650;44.536;18.664;2022-11-24T19:21:33;9.70;99.90
52765;DHT22;38650;44.536;18.664;2022-11-24T19:24:00;9.70;99.90
52765;DHT22;38650;44.536;18.664;2022-11-24T19:26:25;9.70;99.90
52765;DHT22;38650;44.536;18.664;2022-11-24T19:28:51;9.70;99.90
52765;DHT22;38650;44.536;18.664;2022-11-24T19:31:19;9.70;99.90
52765;DHT22;38650;44.536;18.664;2022-11-24T19:33:45;9.70;99.90
52765;DHT22;38650;44.536;18.664;2022-11-24T19:36:21;9.60;99.90
52765;DHT22;38650;44.536;18.664;2022-11-24T19:38:49;9.60;99.90
52765;DHT22;38650;44.536;18.664;2022-11-24T19:41:16;9.50;99.90
52765;DHT22;38650;44.536;18.664;2022-11-24T19:43:44;9.50;99.90
52765;DHT22;38650;44.536;18.664;2022-11-24T19:46:12;9.40;99.90
52765;DHT22;38650;44.536;18.664;2022-11-24T19:48:42;9.40;99.90
52765;DHT22;38650;44.536;18.664;2022-11-24T19:51:13;9.50;99.90
52765;DHT22;38650;44.536;18.664;2022-11-24T19:53:39;9.40;99.90
52765;DHT22;38650;44.536;18.664;2022-11-24T19:56:06;9.40;99.90
52765;DHT22;38650;44.536;18.664;2022-11-24T19:58:32;9.40;99.90
52765;DHT22;38650;44.536;18.664;2022-11-24T20:01:09;9.40;99.90
52765;DHT22;38650;44.536;18.664;2022-11-24T20:03:36;9.40;99.90
52765;DHT22;38650;44.536;18.664;2022-11-24T20:06:03;9.40;99.90
52765;DHT22;38650;44.536;18.664;2022-11-24T20:08:30;9.40;99.90
52765;DHT22;38650;44.536;18.664;2022-11-24T20:11:07;9.40;99.90
52765;DHT22;38650;44.536;18.664;2022-11-24T20:13:34;9.40;99.90
52765;DHT22;38650;44.536;18.664;2022-11-24T20:16:09;9.30;99.90
52765;DHT22;38650;44.536;18.664;2022-11-24T20:18:36;9.20;99.90
52765;DHT22;38650;44.536;18.664;2022-11-24T20:21:07;9.10;99.90
52765;DHT22;38650;44.536;18.664;2022-11-24T20:23:33;9.10;99.90
52765;DHT22;38650;44.536;18.664;2022-11-24T20:26:11;9.10;99.90
52765;DHT22;38650;44.536;18.664;2022-11-24T20:28:37;9.10;99.90
52765;DHT22;38650;44.536;18.664;2022-11-24T20:31:12;8.90;99.90
52765;DHT22;38650;44.536;18.664;2022-11-24T20:33:39;8.90;99.90
52765;DHT22;38650;44.536;18.664;2022-11-24T20:36:09;8.90;99.90
52765;DHT22;38650;44.536;18.664;2022-11-24T20:38:37;8.90;99.90
52765;DHT22;38650;44.536;18.664;2022-11-24T20:41:10;8.90;99.90
52765;DHT22;38650;44.536;18.664;2022-11-24T20:43:37;8.90;99.90
52765;DHT22;38650;44.536;18.664;2022-11-24T20:46:08;8.80;99.90
52765;DHT22;38650;44.536;18.664;2022-11-24T20:48:34;8.70;99.90
52765;DHT22;38650;44.536;18.664;2022-11-24T20:51:08;8.70;99.90
52765;DHT22;38650;44.536;18.664;2022-11-24T20:53:35;8.60;99.90
52765;DHT22;38650;44.536;18.664;2022-11-24T20:56:07;8.60;99.90
52765;DHT22;38650;44.536;18.664;2022-11-24T20:58:34;8.60;99.90
52765;DHT22;38650;44.536;18.664;2022-11-24T21:01:14;8.60;99.90
52765;DHT22;38650;44.536;18.664;2022-11-24T21:03:41;8.80;99.90
52765;DHT22;38650;44.536;18.664;2022-11-24T21:06:07;8.80;99.90
52765;DHT22;38650;44.536;18.664;2022-11-24T21:08:35;8.90;99.90
52765;DHT22;38650;44.536;18.664;2022-11-24T21:11:02;8.90;99.90
52765;DHT22;38650;44.536;18.664;2022-11-24T21:13:28;8.90;99.90
52765;DHT22;38650;44.536;18.664;2022-11-24T21:15:56;8.80;99.90
52765;DHT22;38650;44.536;18.664;2022-11-24T21:18:21;8.70;99.90
52765;DHT22;38650;44.536;18.664;2022-11-24T21:20:47;8.70;99.90
52765;DHT22;38650;44.536;18.664;2022-11-24T21:23:13;8.70;99.90
52765;DHT22;38650;44.536;18.664;2022-11-24T21:25:40;8.80;99.90
52765;DHT22;38650;44.536;18.664;2022-11-24T21:28:06;8.90;99.90
52765;DHT22;38650;44.536;18.664;2022-11-24T21:30:33;9.00;99.90
52765;DHT22;38650;44.536;18.664;2022-11-24T21:33:03;9.00;99.90
52765;DHT22;38650;44.536;18.664;2022-11-24T21:35:29;9.00;99.90
52765;DHT22;38650;44.536;18.664;2022-11-24T21:37:58;8.90;99.90
52765;DHT22;38650;44.536;18.664;2022-11-24T21:40:23;8.90;99.90
52765;DHT22;38650;44.536;18.664;2022-11-24T21:42:49;8.90;99.90
52765;DHT22;38650;44.536;18.664;2022-11-24T21:45:14;8.90;99.90
52765;DHT22;38650;44.536;18.664;2022-11-24T21:47:40;8.90;99.90
52765;DHT22;38650;44.536;18.664;2022-11-24T21:50:10;8.90;99.90
52765;DHT22;38650;44.536;18.664;2022-11-24T21:52:35;8.90;99.90
52765;DHT22;38650;44.536;18.664;2022-11-24T21:55:01;8.80;99.90
52765;DHT22;38650;44.536;18.664;2022-11-24T21:57:27;8.70;99.90
52765;DHT22;38650;44.536;18.664;2022-11-24T21:59:53;8.60;99.90
52765;DHT22;38650;44.536;18.664;2022-11-24T22:02:18;8.40;99.90
52765;DHT22;38650;44.536;18.664;2022-11-24T22:04:44;8.30;99.90
52765;DHT22;38650;44.536;18.664;2022-11-24T22:07:09;8.30;99.90
52765;DHT22;38650;44.536;18.664;2022-11-24T22:09:35;8.20;99.90
52765;DHT22;38650;44.536;18.664;2022-11-24T22:12:01;8.20;99.90
52765;DHT22;38650;44.536;18.664;2022-11-24T22:14:26;8.10;99.90
52765;DHT22;38650;44.536;18.664;2022-11-24T22:16:52;7.90;99.90
52765;DHT22;38650;44.536;18.664;2022-11-24T22:19:18;7.90;99.90
52765;DHT22;38650;44.536;18.664;2022-11-24T22:21:44;7.90;99.90
52765;DHT22;38650;44.536;18.664;2022-11-24T22:24:10;7.90;99.90
52765;DHT22;38650;44.536;18.664;2022-11-24T22:26:35;7.90;99.90
52765;DHT22;38650;44.536;18.664;2022-11-24T22:29:02;7.90;99.90
52765;DHT22;38650;44.536;18.664;2022-11-24T22:31:30;7.80;99.90
52765;DHT22;38650;44.536;18.664;2022-11-24T22:33:57;7.70;99.90
52765;DHT22;38650;44.536;18.664;2022-11-24T22:36:25;7.80;99.90
52765;DHT22;38650;44.536;18.664;2022-11-24T22:38:53;7.90;99.90
52765;DHT22;38650;44.536;18.664;2022-11-24T22:41:18;8.00;99.90
52765;DHT22;38650;44.536;18.664;2022-11-24T22:43:45;8.10;99.90
52765;DHT22;38650;44.536;18.664;2022-11-24T22:46:11;8.10;99.90
52765;DHT22;38650;44.536;18.664;2022-11-24T22:48:37;8.10;99.90
52765;DHT22;38650;44.536;18.664;2022-11-24T22:51:05;8.20;99.90
52765;DHT22;38650;44.536;18.664;2022-11-24T22:53:31;8.20;99.90
52765;DHT22;38650;44.536;18.664;2022-11-24T22:56:01;8.30;99.90
52765;DHT22;38650;44.536;18.664;2022-11-24T22:58:28;8.30;99.90
52765;DHT22;38650;44.536;18.664;2022-11-24T23:00:54;8.30;99.90
52765;DHT22;38650;44.536;18.664;2022-11-24T23:03:19;8.20;99.90
52765;DHT22;38650;44.536;18.664;2022-11-24T23:05:45;8.20;99.90
52765;DHT22;38650;44.536;18.664;2022-11-24T23:08:11;8.20;99.90
52765;DHT22;38650;44.536;18.664;2022-11-24T23:10:37;8.20;99.90
52765;DHT22;38650;44.536;18.664;2022-11-24T23:13:02;8.10;99.90
52765;DHT22;38650;44.536;18.664;2022-11-24T23:15:28;8.10;99.90
52765;DHT22;38650;44.536;18.664;2022-11-24T23:17:54;8.00;99.90
52765;DHT22;38650;44.536;18.664;2022-11-24T23:20:20;8.00;99.90
52765;DHT22;38650;44.536;18.664;2022-11-24T23:22:45;8.10;99.90
52765;DHT22;38650;44.536;18.664;2022-11-24T23:25:11;8.10;99.90
52765;DHT22;38650;44.536;18.664;2022-11-24T23:27:37;8.10;99.90
52765;DHT22;38650;44.536;18.664;2022-11-24T23:30:03;8.10;99.90
52765;DHT22;38650;44.536;18.664;2022-11-24T23:32:29;8.10;99.90
52765;DHT22;38650;44.536;18.664;2022-11-24T23:34:54;8.20;99.90
52765;DHT22;38650;44.536;18.664;2022-11-24T23:37:20;8.20;99.90
52765;DHT22;38650;44.536;18.664;2022-11-24T23:39:46;8.20;99.90
52765;DHT22;38650;44.536;18.664;2022-11-24T23:42:12;8.20;99.90
52765;DHT22;38650;44.536;18.664;2022-11-24T23:44:37;8.20;99.90
52765;DHT22;38650;44.536;18.664;2022-11-24T23:47:03;8.30;99.90
52765;DHT22;38650;44.536;18.664;2022-11-24T23:49:29;8.30;99.90
52765;DHT22;38650;44.536;18.664;2022-11-24T23:51:54;8.30;99.90
52765;DHT22;38650;44.536;18.664;2022-11-24T23:54:20;8.20;99.90
52765;DHT22;38650;44.536;18.664;2022-11-24T23:56:46;8.10;99.90
52765;DHT22;38650;44.536;18.664;2022-11-24T23:59:11;8.10;99.90
